Time;durP1;ratioP1;P1;durP2;ratioP2;P2;SDS_P1;SDS_P2;PMS_P1;PMS_P2;Temp;Humidity;BMP_temperature;BMP_pressure;BME280_temperature;BME280_humidity;BME280_pressure;Samples;Min_cycle;Max_cycle;Signal;HPM_P1;HPM_P2
2023/08/24 00:00:28;;;;;;;0.10;0.10;;;;;;;;;;1048296;28;20028;-23
2023/08/24 00:00:59;;;;;;;0.45;0.45;;;;;;;;;;1048113;28;20032;-23
2023/08/24 00:01:29;;;;;;;0.52;0.30;;;;;;;;;;1048358;28;20020;-24
2023/08/24 00:01:59;;;;;;;0.98;0.73;;;;;;;;;;1048106;28;20056;-24
2023/08/24 00:02:30;;;;;;;0.52;0.52;;;;;;;;;;1048222;28;20040;-23
2023/08/24 00:03:02;;;;;;;1.58;0.77;;;;;;;;;;1048192;28;20393;-24
2023/08/24 00:03:33;;;;;;;1.05;1.02;;;;;;;;;;1048330;28;20028;-24
2023/08/24 00:04:03;;;;;;;2.00;1.90;;;;;;;;;;1048101;28;20177;-24
2023/08/24 00:04:34;;;;;;;0.45;0.45;;;;;;;;;;1048270;28;20024;-24
2023/08/24 00:05:05;;;;;;;0.30;0.30;;;;;;;;;;1048134;28;20042;-24
2023/08/24 00:05:40;;;;;;;1.25;0.75;;;;;;;;;;1048365;28;20025;-23
2023/08/24 00:06:10;;;;;;;5.63;1.23;;;;;;;;;;1048145;28;20028;-24
2023/08/24 00:06:41;;;;;;;2.08;1.45;;;;;;;;;;1048047;28;20499;-22
2023/08/24 00:07:11;;;;;;;2.60;0.40;;;;;;;;;;1048218;28;20031;-24
2023/08/24 00:07:42;;;;;;;1.10;1.00;;;;;;;;;;1048194;28;20060;-24
2023/08/24 00:08:12;;;;;;;0.10;0.10;;;;;;;;;;1048249;28;20480;-25
2023/08/24 00:08:43;;;;;;;0.82;0.82;;;;;;;;;;1048283;28;20073;-25
2023/08/24 00:09:15;;;;;;;2.55;0.93;;;;;;;;;;1048068;28;20028;-22
2023/08/24 00:09:45;;;;;;;3.15;2.85;;;;;;;;;;1048233;28;20107;-24
2023/08/24 00:10:16;;;;;;;7.43;3.45;;;;;;;;;;1048239;28;20035;-24
2023/08/24 00:10:46;;;;;;;12.45;2.78;;;;;;;;;;1048205;28;20139;-24
2023/08/24 00:11:17;;;;;;;5.28;1.42;;;;;;;;;;1048101;28;20479;-24
2023/08/24 00:11:47;;;;;;;6.47;2.33;;;;;;;;;;1048179;28;20125;-22
2023/08/24 00:12:18;;;;;;;2.92;1.58;;;;;;;;;;1048148;28;20032;-24
2023/08/24 00:12:48;;;;;;;3.67;0.68;;;;;;;;;;1048251;28;20468;-24
2023/08/24 00:13:19;;;;;;;5.78;1.40;;;;;;;;;;1048154;28;20128;-24
2023/08/24 00:13:50;;;;;;;5.00;1.98;;;;;;;;;;1048222;28;20024;-24
2023/08/24 00:14:21;;;;;;;3.63;2.40;;;;;;;;;;1048134;28;20476;-24
2023/08/24 00:14:52;;;;;;;0.30;0.30;;;;;;;;;;1048226;28;20032;-24
2023/08/24 00:15:22;;;;;;;0.70;0.70;;;;;;;;;;1048216;28;20029;-24
2023/08/24 00:15:53;;;;;;;1.33;0.40;;;;;;;;;;1048024;28;20119;-24
2023/08/24 00:16:24;;;;;;;0.73;0.73;;;;;;;;;;1048282;28;20483;-24
2023/08/24 00:16:54;;;;;;;0.75;0.75;;;;;;;;;;1048225;28;20031;-24
2023/08/24 00:17:25;;;;;;;1.95;1.75;;;;;;;;;;1048192;28;20433;-24
2023/08/24 00:17:55;;;;;;;8.75;1.27;;;;;;;;;;1048118;28;20032;-25
2023/08/24 00:18:26;;;;;;;1.58;1.48;;;;;;;;;;1048322;28;20131;-25
2023/08/24 00:18:56;;;;;;;4.95;1.73;;;;;;;;;;1048191;28;20028;-24
2023/08/24 00:19:27;;;;;;;4.30;1.20;;;;;;;;;;1048207;28;20021;-24
2023/08/24 00:19:57;;;;;;;2.35;0.95;;;;;;;;;;1048183;28;20115;-24
2023/08/24 00:20:28;;;;;;;4.55;0.88;;;;;;;;;;1048330;28;20052;-24
2023/08/24 00:20:58;;;;;;;1.58;0.82;;;;;;;;;;1047995;28;20480;-23
2023/08/24 00:21:29;;;;;;;5.45;1.52;;;;;;;;;;1048276;28;20035;-23
2023/08/24 00:21:59;;;;;;;0.95;0.85;;;;;;;;;;1048156;28;20511;-24
2023/08/24 00:22:30;;;;;;;0.43;0.43;;;;;;;;;;1048231;28;20115;-24
2023/08/24 00:23:00;;;;;;;1.65;0.93;;;;;;;;;;1048136;28;20025;-24
2023/08/24 00:23:31;;;;;;;0.38;0.35;;;;;;;;;;1048375;28;20077;-24
2023/08/24 00:24:01;;;;;;;3.88;1.45;;;;;;;;;;1048159;28;20028;-24
2023/08/24 00:24:32;;;;;;;1.27;1.17;;;;;;;;;;1048187;28;20492;-23
2023/08/24 00:25:02;;;;;;;3.92;1.23;;;;;;;;;;1048133;28;20123;-24
2023/08/24 00:25:33;;;;;;;2.47;0.50;;;;;;;;;;1048397;28;20388;-24
2023/08/24 00:26:03;;;;;;;3.47;0.68;;;;;;;;;;1048000;28;20036;-25
2023/08/24 00:26:34;;;;;;;1.48;1.42;;;;;;;;;;1048249;28;20024;-24
2023/08/24 00:27:05;;;;;;;2.58;0.80;;;;;;;;;;1047969;28;20520;-23
2023/08/24 00:27:36;;;;;;;1.48;1.38;;;;;;;;;;1048207;28;20020;-23
2023/08/24 00:28:06;;;;;;;0.10;0.10;;;;;;;;;;1047720;28;20028;-24
2023/08/24 00:28:37;;;;;;;0.10;0.10;;;;;;;;;;1048071;28;20073;-24
2023/08/24 00:29:07;;;;;;;0.38;0.38;;;;;;;;;;1047797;28;20458;-24
2023/08/24 00:29:38;;;;;;;1.10;1.02;;;;;;;;;;1047986;28;20035;-24
2023/08/24 00:30:08;;;;;;;3.15;1.45;;;;;;;;;;1048168;28;20369;-23
2023/08/24 00:30:39;;;;;;;0.88;0.22;;;;;;;;;;1048298;28;20031;-24
2023/08/24 00:31:09;;;;;;;0.82;0.82;;;;;;;;;;1048080;28;20025;-24
2023/08/24 00:31:40;;;;;;;1.08;0.85;;;;;;;;;;1048159;28;20017;-24
2023/08/24 00:32:10;;;;;;;1.25;0.63;;;;;;;;;;1048251;28;20020;-25
2023/08/24 00:32:41;;;;;;;10.25;1.08;;;;;;;;;;1048014;28;20028;-24
2023/08/24 00:33:11;;;;;;;0.98;0.90;;;;;;;;;;1048216;28;20012;-24
2023/08/24 00:33:42;;;;;;;0.25;0.15;;;;;;;;;;1048220;28;20368;-24
2023/08/24 00:34:12;;;;;;;0.40;0.40;;;;;;;;;;1047989;28;20020;-24
2023/08/24 00:34:43;;;;;;;0.70;0.70;;;;;;;;;;1048297;28;20127;-24
2023/08/24 00:35:13;;;;;;;0.20;0.20;;;;;;;;;;1048540;28;20052;-24
2023/08/24 00:35:44;;;;;;;1.98;1.65;;;;;;;;;;1048941;28;20078;-24
2023/08/24 00:36:15;;;;;;;2.58;1.83;;;;;;;;;;1048881;28;20026;-25
2023/08/24 00:36:45;;;;;;;0.20;0.20;;;;;;;;;;1048816;28;20090;-23
2023/08/24 00:37:16;;;;;;;1.75;1.65;;;;;;;;;;1048767;28;20558;-24
2023/08/24 00:37:47;;;;;;;0.90;0.77;;;;;;;;;;1048810;28;20035;-24
2023/08/24 00:38:18;;;;;;;0.85;0.68;;;;;;;;;;1048948;28;20071;-24
2023/08/24 00:38:51;;;;;;;0.65;0.65;;;;;;;;;;1049033;28;20036;-25
2023/08/24 00:39:21;;;;;;;0.28;0.28;;;;;;;;;;1048779;28;20486;-24
2023/08/24 00:39:52;;;;;;;0.10;0.10;;;;;;;;;;1048908;28;20035;-22
2023/08/24 00:40:24;;;;;;;0.15;0.15;;;;;;;;;;1048904;28;20036;-24
2023/08/24 00:40:55;;;;;;;0.00;0.00;;;;;;;;;;1048772;28;20024;-24
2023/08/24 00:41:26;;;;;;;0.28;0.28;;;;;;;;;;1048940;28;20025;-24
2023/08/24 00:41:56;;;;;;;0.35;0.30;;;;;;;;;;1048869;28;20028;-25
2023/08/24 00:42:27;;;;;;;0.65;0.65;;;;;;;;;;1048901;28;20059;-22
2023/08/24 00:42:57;;;;;;;1.73;1.45;;;;;;;;;;1048772;28;20031;-22
2023/08/24 00:43:28;;;;;;;0.43;0.43;;;;;;;;;;1049017;28;20056;-24
2023/08/24 00:43:58;;;;;;;1.25;1.05;;;;;;;;;;1048891;28;20021;-23
2023/08/24 00:44:29;;;;;;;0.08;0.08;;;;;;;;;;1048850;28;20032;-24
2023/08/24 00:44:59;;;;;;;0.52;0.52;;;;;;;;;;1048818;28;20115;-24
2023/08/24 00:45:30;;;;;;;0.60;0.60;;;;;;;;;;1048918;28;20029;-24
2023/08/24 00:46:01;;;;;;;0.10;0.10;;;;;;;;;;1048689;28;20492;-24
2023/08/24 00:46:32;;;;;;;5.82;0.30;;;;;;;;;;1049007;28;20028;-24
2023/08/24 00:47:03;;;;;;;1.38;0.95;;;;;;;;;;1048731;28;20387;-24
2023/08/24 00:47:33;;;;;;;1.02;0.77;;;;;;;;;;1048861;28;20027;-23
2023/08/24 00:48:04;;;;;;;0.30;0.25;;;;;;;;;;1048834;28;20036;-24
2023/08/24 00:48:34;;;;;;;6.03;2.30;;;;;;;;;;1048964;28;20479;-24
2023/08/24 00:49:05;;;;;;;1.27;1.17;;;;;;;;;;1048740;28;20064;-24
2023/08/24 00:49:36;;;;;;;0.47;0.47;;;;;;;;;;1048943;28;20028;-24
2023/08/24 00:50:06;;;;;;;0.88;0.68;;;;;;;;;;1048792;28;20028;-24
2023/08/24 00:50:37;;;;;;;0.10;0.10;;;;;;;;;;1048959;28;20032;-24
2023/08/24 00:51:08;;;;;;;0.08;0.08;;;;;;;;;;1048709;28;20430;-24
2023/08/24 00:51:40;;;;;;;8.70;0.85;;;;;;;;;;1048962;28;20035;-24
2023/08/24 00:52:10;;;;;;;5.53;0.98;;;;;;;;;;1048843;28;20028;-22
2023/08/24 00:52:41;;;;;;;0.60;0.60;;;;;;;;;;1048820;28;20025;-23
2023/08/24 00:53:12;;;;;;;0.40;0.40;;;;;;;;;;1048853;28;20032;-24
2023/08/24 00:53:43;;;;;;;1.42;1.33;;;;;;;;;;1048969;28;20701;-22
2023/08/24 00:54:13;;;;;;;0.25;0.22;;;;;;;;;;1048703;28;20054;-24
2023/08/24 00:54:44;;;;;;;0.10;0.10;;;;;;;;;;1048918;28;20522;-24
2023/08/24 00:55:15;;;;;;;0.82;0.82;;;;;;;;;;1048870;28;20060;-24
2023/08/24 00:55:46;;;;;;;0.98;0.88;;;;;;;;;;1048822;28;20502;-24
2023/08/24 00:56:17;;;;;;;0.10;0.10;;;;;;;;;;1048859;28;20105;-24
2023/08/24 00:56:47;;;;;;;1.08;0.98;;;;;;;;;;1048811;28;20468;-23
2023/08/24 00:57:18;;;;;;;1.10;0.68;;;;;;;;;;1048941;28;20025;-24
2023/08/24 00:57:48;;;;;;;0.73;0.73;;;;;;;;;;1048613;28;20395;-23
2023/08/24 00:58:19;;;;;;;2.03;1.65;;;;;;;;;;1048843;28;20031;-21
2023/08/24 00:58:50;;;;;;;0.45;0.45;;;;;;;;;;1048825;28;20033;-24
2023/08/24 00:59:21;;;;;;;0.55;0.55;;;;;;;;;;1048588;28;20028;-23
2023/08/24 00:59:51;;;;;;;1.27;0.70;;;;;;;;;;1048955;28;20123;-23
2023/08/24 01:00:22;;;;;;;1.23;0.85;;;;;;;;;;1048605;28;20483;-24
2023/08/24 01:00:53;;;;;;;11.23;1.95;;;;;;;;;;1048720;28;20023;-25
2023/08/24 01:01:24;;;;;;;1.17;1.05;;;;;;;;;;1047529;28;20025;-25
2023/08/24 01:01:55;;;;;;;2.85;1.50;;;;;;;;;;1048785;28;20566;-23
2023/08/24 01:02:26;;;;;;;4.43;1.23;;;;;;;;;;1048862;28;20035;-24
2023/08/24 01:02:56;;;;;;;1.67;0.85;;;;;;;;;;1048610;28;20035;-24
2023/08/24 01:03:26;;;;;;;1.50;0.85;;;;;;;;;;1048673;28;20444;-24
2023/08/24 01:03:57;;;;;;;2.92;0.82;;;;;;;;;;1047612;28;20021;-24
2023/08/24 01:04:28;;;;;;;1.48;1.38;;;;;;;;;;1048595;28;20395;-25
2023/08/24 01:04:58;;;;;;;3.03;1.55;;;;;;;;;;1048772;28;20509;-24
2023/08/24 01:05:29;;;;;;;3.65;2.33;;;;;;;;;;1048459;28;20025;-24
2023/08/24 01:06:00;;;;;;;1.30;1.20;;;;;;;;;;1048447;28;20021;-24
2023/08/24 01:06:30;;;;;;;0.35;0.35;;;;;;;;;;1048364;28;20402;-25
2023/08/24 01:07:01;;;;;;;0.50;0.50;;;;;;;;;;1048612;28;20028;-24
2023/08/24 01:07:32;;;;;;;1.00;0.98;;;;;;;;;;1048360;28;20020;-24
2023/08/24 01:08:03;;;;;;;1.85;0.95;;;;;;;;;;1048559;28;20040;-24
2023/08/24 01:08:34;;;;;;;0.93;0.73;;;;;;;;;;1048697;28;20060;-24
2023/08/24 01:09:05;;;;;;;0.68;0.68;;;;;;;;;;1048621;28;20051;-24
2023/08/24 01:09:36;;;;;;;0.65;0.65;;;;;;;;;;1048276;28;20058;-24
2023/08/24 01:10:07;;;;;;;2.22;1.40;;;;;;;;;;1048085;28;20036;-24
2023/08/24 01:10:58;;;;;;;2.40;1.25;;;;;;;;;;1048679;28;20035;-23
2023/08/24 01:11:34;;;;;;;1.40;1.02;;;;;;;;;;1048546;28;20020;-24
2023/08/24 01:12:10;;;;;;;0.30;0.30;;;;;;;;;;1048508;28;20159;-25
2023/08/24 01:12:58;;;;;;;4.63;0.77;;;;;;;;;;1048052;28;20035;-24
2023/08/24 01:13:50;;;;;;;1.45;1.02;;;;;;;;;;1048219;28;20054;-24
2023/08/24 01:14:20;;;;;;;2.38;2.17;;;;;;;;;;1048216;28;20518;-25
2023/08/24 01:15:11;;;;;;;2.08;1.80;;;;;;;;;;1048555;28;20052;-25
2023/08/24 01:15:55;;;;;;;2.85;2.65;;;;;;;;;;1048133;28;20093;-24
2023/08/24 01:16:29;;;;;;;1.48;0.65;;;;;;;;;;1048646;28;20021;-25
2023/08/24 01:17:01;;;;;;;0.30;0.30;;;;;;;;;;1048504;28;20115;-25
2023/08/24 01:17:32;;;;;;;0.38;0.35;;;;;;;;;;1048540;28;20203;-25
2023/08/24 01:18:08;;;;;;;1.02;0.57;;;;;;;;;;1048126;28;20034;-24
2023/08/24 01:18:40;;;;;;;2.90;1.35;;;;;;;;;;1048283;28;20029;-25
2023/08/24 01:19:19;;;;;;;0.10;0.10;;;;;;;;;;1048125;28;20068;-24
2023/08/24 01:19:50;;;;;;;0.68;0.43;;;;;;;;;;1048488;28;20530;-25
2023/08/24 01:20:21;;;;;;;0.47;0.47;;;;;;;;;;1048644;28;20399;-25
2023/08/24 01:20:51;;;;;;;0.30;0.20;;;;;;;;;;1048369;28;20044;-25
2023/08/24 01:21:22;;;;;;;0.40;0.40;;;;;;;;;;1048516;28;20033;-25
2023/08/24 01:21:54;;;;;;;1.48;1.10;;;;;;;;;;1048538;28;20021;-25
2023/08/24 01:22:27;;;;;;;1.27;1.15;;;;;;;;;;1047906;28;20059;-24
2023/08/24 01:23:04;;;;;;;1.77;1.25;;;;;;;;;;1048598;28;20029;-25
2023/08/24 01:23:46;;;;;;;1.48;1.38;;;;;;;;;;1048563;28;20025;-24
2023/08/24 01:24:28;;;;;;;0.63;0.38;;;;;;;;;;1048341;28;20032;-25
2023/08/24 01:25:07;;;;;;;0.00;0.00;;;;;;;;;;1048546;28;20031;-25
2023/08/24 01:25:40;;;;;;;0.85;0.77;;;;;;;;;;1048550;28;20022;-24
2023/08/24 01:26:17;;;;;;;1.55;1.27;;;;;;;;;;1048124;28;20056;-24
2023/08/24 01:26:49;;;;;;;0.57;0.57;;;;;;;;;;1048312;28;20082;-24
2023/08/24 01:27:20;;;;;;;1.30;1.20;;;;;;;;;;1048507;28;20541;-25
2023/08/24 01:27:51;;;;;;;0.80;0.47;;;;;;;;;;1048438;28;20391;-24
2023/08/24 01:28:22;;;;;;;0.88;0.50;;;;;;;;;;1048583;28;20069;-24
2023/08/24 01:28:53;;;;;;;4.57;1.75;;;;;;;;;;1048543;28;20477;-25
2023/08/24 01:29:24;;;;;;;1.48;1.38;;;;;;;;;;1048439;28;20036;-25
2023/08/24 01:29:56;;;;;;;0.95;0.95;;;;;;;;;;1048512;28;20141;-24
2023/08/24 01:30:27;;;;;;;1.83;1.67;;;;;;;;;;1047988;28;20509;-24
2023/08/24 01:30:58;;;;;;;0.25;0.25;;;;;;;;;;1047746;28;20069;-25
2023/08/24 01:31:29;;;;;;;0.32;0.30;;;;;;;;;;1049185;28;20569;-25
2023/08/24 01:32:00;;;;;;;0.75;0.60;;;;;;;;;;1047576;28;20456;-24
2023/08/24 01:32:34;;;;;;;0.40;0.40;;;;;;;;;;1048400;28;20020;-24
2023/08/24 01:33:05;;;;;;;0.00;0.00;;;;;;;;;;1046608;28;20031;-25
2023/08/24 01:33:35;;;;;;;0.22;0.22;;;;;;;;;;1048520;28;20027;-24
2023/08/24 01:34:06;;;;;;;0.20;0.20;;;;;;;;;;1048450;28;20024;-25
2023/08/24 01:34:38;;;;;;;1.23;1.13;;;;;;;;;;1048609;28;20157;-25
2023/08/24 01:35:09;;;;;;;4.15;2.13;;;;;;;;;;1048420;28;20541;-24
2023/08/24 01:35:40;;;;;;;0.20;0.20;;;;;;;;;;1048654;28;20060;-23
2023/08/24 01:36:12;;;;;;;0.50;0.50;;;;;;;;;;1048406;28;20471;-24
2023/08/24 01:36:43;;;;;;;3.13;2.28;;;;;;;;;;1048389;28;20024;-25
2023/08/24 01:37:14;;;;;;;0.47;0.20;;;;;;;;;;1047348;28;20206;-25
2023/08/24 01:37:44;;;;;;;0.65;0.32;;;;;;;;;;1047905;28;20090;-24
2023/08/24 01:38:15;;;;;;;0.05;0.05;;;;;;;;;;1048571;28;20025;-24
2023/08/24 01:38:52;;;;;;;0.45;0.45;;;;;;;;;;1048492;28;20034;-25
2023/08/24 01:39:30;;;;;;;1.33;0.60;;;;;;;;;;1046381;28;20115;-25
2023/08/24 01:40:12;;;;;;;0.95;0.63;;;;;;;;;;1047903;28;20028;-24
2023/08/24 01:40:54;;;;;;;0.57;0.57;;;;;;;;;;1048467;28;20078;-25
2023/08/24 01:41:26;;;;;;;0.45;0.40;;;;;;;;;;1048504;28;20065;-24
2023/08/24 01:41:59;;;;;;;0.77;0.77;;;;;;;;;;1051518;28;20024;-24
2023/08/24 01:42:31;;;;;;;1.58;0.57;;;;;;;;;;1052734;28;20035;-24
2023/08/24 01:43:03;;;;;;;0.63;0.63;;;;;;;;;;1052828;28;20383;-23
2023/08/24 01:43:35;;;;;;;0.40;0.40;;;;;;;;;;1052770;28;20031;-23
2023/08/24 01:44:07;;;;;;;1.80;1.65;;;;;;;;;;1052603;28;20020;-24
2023/08/24 01:44:39;;;;;;;1.13;0.68;;;;;;;;;;1052737;28;20071;-25
2023/08/24 01:45:10;;;;;;;0.20;0.20;;;;;;;;;;1052870;28;20483;-24
2023/08/24 01:45:42;;;;;;;2.17;1.35;;;;;;;;;;1052620;28;20387;-24
2023/08/24 01:46:17;;;;;;;0.63;0.57;;;;;;;;;;1051217;28;20043;-25
2023/08/24 01:46:49;;;;;;;1.73;1.50;;;;;;;;;;1047911;28;20033;-24
2023/08/24 01:47:21;;;;;;;0.65;0.65;;;;;;;;;;1048168;28;20472;-24
2023/08/24 01:47:52;;;;;;;0.20;0.13;;;;;;;;;;1048304;28;20515;-23
2023/08/24 01:48:22;;;;;;;3.70;2.50;;;;;;;;;;1048645;28;20024;-25
2023/08/24 01:48:53;;;;;;;0.40;0.30;;;;;;;;;;1048609;28;20036;-23
2023/08/24 01:49:24;;;;;;;0.95;0.75;;;;;;;;;;1048400;28;20028;-24
2023/08/24 01:49:55;;;;;;;8.75;0.57;;;;;;;;;;1047763;28;20036;-24
2023/08/24 01:50:25;;;;;;;0.65;0.60;;;;;;;;;;1048477;28;20536;-24
2023/08/24 01:50:57;;;;;;;0.15;0.15;;;;;;;;;;1048544;28;20024;-25
2023/08/24 01:51:28;;;;;;;0.32;0.32;;;;;;;;;;1048575;28;20028;-24
2023/08/24 01:51:58;;;;;;;1.63;1.42;;;;;;;;;;1051131;28;20086;-23
2023/08/24 01:52:29;;;;;;;0.28;0.28;;;;;;;;;;1052681;28;20066;-24
2023/08/24 01:53:00;;;;;;;0.05;0.05;;;;;;;;;;1051671;28;20031;-24
2023/08/24 01:53:31;;;;;;;2.65;2.45;;;;;;;;;;1047710;28;20028;-25
2023/08/24 01:54:02;;;;;;;0.65;0.65;;;;;;;;;;1048545;28;20111;-25
2023/08/24 01:54:32;;;;;;;1.02;0.22;;;;;;;;;;1048352;28;20035;-25
2023/08/24 01:55:03;;;;;;;0.75;0.75;;;;;;;;;;1048484;28;20119;-24
2023/08/24 01:55:34;;;;;;;1.23;1.13;;;;;;;;;;1048547;28;20024;-24
2023/08/24 01:56:11;;;;;;;1.75;1.50;;;;;;;;;;1048277;28;20024;-24
2023/08/24 01:56:41;;;;;;;0.32;0.32;;;;;;;;;;1048409;28;20032;-24
2023/08/24 01:57:12;;;;;;;1.35;0.30;;;;;;;;;;1048573;28;20025;-22
2023/08/24 01:57:42;;;;;;;1.35;1.08;;;;;;;;;;1048354;28;20032;-24
2023/08/24 01:58:12;;;;;;;2.10;1.55;;;;;;;;;;1048463;28;20039;-24
2023/08/24 01:58:43;;;;;;;0.80;0.80;;;;;;;;;;1048605;28;20032;-24
2023/08/24 01:59:13;;;;;;;1.05;0.35;;;;;;;;;;1048504;28;20032;-23
2023/08/24 01:59:44;;;;;;;1.95;1.30;;;;;;;;;;1048415;28;20126;-24
2023/08/24 02:00:15;;;;;;;1.35;0.85;;;;;;;;;;1048469;28;20555;-25
2023/08/24 02:00:45;;;;;;;0.38;0.38;;;;;;;;;;1048407;28;20031;-24
2023/08/24 02:01:16;;;;;;;0.32;0.32;;;;;;;;;;1048537;28;20058;-24
2023/08/24 02:01:46;;;;;;;3.33;2.50;;;;;;;;;;1049022;28;20432;-24
2023/08/24 02:02:17;;;;;;;2.50;2.30;;;;;;;;;;1052791;28;20028;-25
2023/08/24 02:02:47;;;;;;;0.30;0.30;;;;;;;;;;1049937;28;20416;-24
2023/08/24 02:03:18;;;;;;;0.17;0.17;;;;;;;;;;1048608;28;20025;-24
2023/08/24 02:03:48;;;;;;;0.00;0.00;;;;;;;;;;1048260;28;20024;-24
2023/08/24 02:04:19;;;;;;;0.20;0.10;;;;;;;;;;1048472;28;20480;-24
2023/08/24 02:04:49;;;;;;;1.27;1.17;;;;;;;;;;1048540;28;20062;-25
2023/08/24 02:05:20;;;;;;;1.35;1.25;;;;;;;;;;1048444;28;20032;-24
2023/08/24 02:05:50;;;;;;;1.55;1.45;;;;;;;;;;1048314;28;20039;-24
2023/08/24 02:06:21;;;;;;;1.10;0.88;;;;;;;;;;1048531;28;20028;-25
2023/08/24 02:06:52;;;;;;;0.28;0.28;;;;;;;;;;1048333;28;20395;-25
2023/08/24 02:07:22;;;;;;;1.35;1.08;;;;;;;;;;1048457;28;20028;-25
2023/08/24 02:07:53;;;;;;;0.65;0.65;;;;;;;;;;1048221;28;20064;-24
2023/08/24 02:08:24;;;;;;;2.08;1.00;;;;;;;;;;1048467;28;20032;-24
2023/08/24 02:08:55;;;;;;;1.00;0.98;;;;;;;;;;1048540;28;20028;-25
2023/08/24 02:09:25;;;;;;;1.50;1.33;;;;;;;;;;1048330;28;20032;-25
2023/08/24 02:09:56;;;;;;;0.55;0.43;;;;;;;;;;1048100;28;20038;-24
2023/08/24 02:10:26;;;;;;;0.10;0.10;;;;;;;;;;1048470;28;20127;-25
2023/08/24 02:10:57;;;;;;;0.65;0.65;;;;;;;;;;1048354;28;20463;-24
2023/08/24 02:11:27;;;;;;;1.20;1.05;;;;;;;;;;1048346;28;20028;-25
2023/08/24 02:11:58;;;;;;;0.95;0.70;;;;;;;;;;1050379;28;20028;-25
2023/08/24 02:12:28;;;;;;;0.75;0.75;;;;;;;;;;1052434;28;20028;-25
2023/08/24 02:12:59;;;;;;;1.95;0.60;;;;;;;;;;1052508;28;20032;-24
2023/08/24 02:13:29;;;;;;;0.43;0.40;;;;;;;;;;1052631;28;20024;-24
2023/08/24 02:14:00;;;;;;;0.05;0.05;;;;;;;;;;1052165;28;20377;-25
2023/08/24 02:14:30;;;;;;;3.25;0.98;;;;;;;;;;1052314;28;20126;-25
2023/08/24 02:15:01;;;;;;;0.10;0.10;;;;;;;;;;1049429;28;20465;-25
2023/08/24 02:15:31;;;;;;;1.60;1.05;;;;;;;;;;1047905;28;20043;-25
2023/08/24 02:16:02;;;;;;;0.28;0.15;;;;;;;;;;1043985;28;20025;-25
2023/08/24 02:16:33;;;;;;;0.95;0.22;;;;;;;;;;1044005;28;20033;-25
2023/08/24 02:17:04;;;;;;;0.40;0.40;;;;;;;;;;1042029;28;20377;-25
2023/08/24 02:17:34;;;;;;;0.70;0.70;;;;;;;;;;1043337;28;20420;-25
2023/08/24 02:18:06;;;;;;;0.90;0.75;;;;;;;;;;1042899;28;20058;-25
2023/08/24 02:18:36;;;;;;;1.08;0.47;;;;;;;;;;1042797;28;20392;-24
2023/08/24 02:19:07;;;;;;;3.72;2.15;;;;;;;;;;1042850;28;20021;-25
2023/08/24 02:19:37;;;;;;;1.77;1.13;;;;;;;;;;1047708;28;20028;-25
2023/08/24 02:20:11;;;;;;;1.10;0.43;;;;;;;;;;1046387;28;20116;-25
2023/08/24 02:20:41;;;;;;;0.55;0.55;;;;;;;;;;1047608;28;20931;-25
2023/08/24 02:21:14;;;;;;;6.40;1.88;;;;;;;;;;1048039;28;20035;-25
2023/08/24 02:21:44;;;;;;;1.65;1.45;;;;;;;;;;1047424;28;20059;-24
2023/08/24 02:22:15;;;;;;;0.77;0.77;;;;;;;;;;1051396;28;20020;-25
2023/08/24 02:22:45;;;;;;;0.55;0.47;;;;;;;;;;1049845;28;20081;-23
2023/08/24 02:23:16;;;;;;;1.75;0.85;;;;;;;;;;1048186;28;20024;-24
2023/08/24 02:23:46;;;;;;;1.13;0.73;;;;;;;;;;1047367;28;20031;-25
2023/08/24 02:24:17;;;;;;;4.03;1.77;;;;;;;;;;1048924;28;20383;-25
2023/08/24 02:24:47;;;;;;;1.25;0.75;;;;;;;;;;1047819;28;20046;-25
2023/08/24 02:25:18;;;;;;;1.90;1.75;;;;;;;;;;1048459;28;20181;-25
2023/08/24 02:25:48;;;;;;;0.45;0.45;;;;;;;;;;1047382;28;20028;-24
2023/08/24 02:26:20;;;;;;;9.35;3.25;;;;;;;;;;1048272;28;20035;-24
2023/08/24 02:26:50;;;;;;;0.13;0.13;;;;;;;;;;1047684;28;20127;-25
2023/08/24 02:27:21;;;;;;;0.10;0.10;;;;;;;;;;1048233;28;20024;-24
2023/08/24 02:27:51;;;;;;;0.28;0.28;;;;;;;;;;1047700;28;20067;-24
2023/08/24 02:28:22;;;;;;;1.13;0.60;;;;;;;;;;1048265;28;20025;-23
2023/08/24 02:28:52;;;;;;;0.50;0.32;;;;;;;;;;1047367;28;20551;-23
2023/08/24 02:29:23;;;;;;;0.60;0.60;;;;;;;;;;1048104;28;20028;-25
2023/08/24 02:29:53;;;;;;;0.30;0.20;;;;;;;;;;1047678;28;20024;-23
2023/08/24 02:30:24;;;;;;;4.07;3.72;;;;;;;;;;1047313;28;20063;-24
2023/08/24 02:30:59;;;;;;;1.35;0.82;;;;;;;;;;1047220;28;20028;-24
2023/08/24 02:31:30;;;;;;;0.77;0.38;;;;;;;;;;1048221;28;20028;-24
2023/08/24 02:32:01;;;;;;;0.60;0.60;;;;;;;;;;1047847;28;20124;-24
2023/08/24 02:32:31;;;;;;;0.45;0.45;;;;;;;;;;1047544;28;20025;-23
2023/08/24 02:33:02;;;;;;;0.60;0.40;;;;;;;;;;1050515;28;20040;-24
2023/08/24 02:33:33;;;;;;;1.27;0.80;;;;;;;;;;1050269;28;20594;-25
2023/08/24 02:34:04;;;;;;;1.08;0.55;;;;;;;;;;1050709;28;20561;-24
2023/08/24 02:34:34;;;;;;;0.50;0.50;;;;;;;;;;1047965;28;20028;-25
2023/08/24 02:35:05;;;;;;;3.13;1.27;;;;;;;;;;1046507;28;20394;-24
2023/08/24 02:35:36;;;;;;;1.02;0.90;;;;;;;;;;1047260;28;20042;-25
2023/08/24 02:36:06;;;;;;;2.25;1.80;;;;;;;;;;1046950;28;20032;-25
2023/08/24 02:36:37;;;;;;;2.85;2.15;;;;;;;;;;1046961;28;20025;-25
2023/08/24 02:37:07;;;;;;;0.10;0.10;;;;;;;;;;1047385;28;20052;-25
2023/08/24 02:37:38;;;;;;;2.53;0.85;;;;;;;;;;1047130;28;20546;-24
2023/08/24 02:38:09;;;;;;;1.98;0.15;;;;;;;;;;1047332;28;20039;-24
2023/08/24 02:38:40;;;;;;;3.00;1.63;;;;;;;;;;1047116;28;20016;-25
2023/08/24 02:39:10;;;;;;;2.88;1.35;;;;;;;;;;1047655;28;20439;-25
2023/08/24 02:39:41;;;;;;;0.20;0.20;;;;;;;;;;1042178;28;20467;-25
2023/08/24 02:40:12;;;;;;;0.65;0.32;;;;;;;;;;1047480;28;20024;-23
2023/08/24 02:40:42;;;;;;;1.90;1.33;;;;;;;;;;1046732;28;20147;-25
2023/08/24 02:41:14;;;;;;;3.20;1.55;;;;;;;;;;1047342;28;20066;-25
2023/08/24 02:41:44;;;;;;;1.98;1.67;;;;;;;;;;1047311;28;20535;-25
2023/08/24 02:42:15;;;;;;;0.10;0.10;;;;;;;;;;1047718;28;20027;-26
2023/08/24 02:42:45;;;;;;;0.63;0.63;;;;;;;;;;1047230;28;20485;-25
2023/08/24 02:43:16;;;;;;;1.65;1.45;;;;;;;;;;1047897;28;20071;-25
2023/08/24 02:43:46;;;;;;;1.38;1.05;;;;;;;;;;1047183;28;20424;-24
2023/08/24 02:44:17;;;;;;;0.10;0.10;;;;;;;;;;1047758;28;20107;-24
2023/08/24 02:44:47;;;;;;;1.45;0.50;;;;;;;;;;1047519;28;20539;-25
2023/08/24 02:45:18;;;;;;;0.65;0.35;;;;;;;;;;1046885;28;20115;-25
2023/08/24 02:45:49;;;;;;;2.42;1.65;;;;;;;;;;1046510;28;20553;-23
2023/08/24 02:46:20;;;;;;;1.98;1.27;;;;;;;;;;1047267;28;20102;-24
2023/08/24 02:46:51;;;;;;;2.97;1.45;;;;;;;;;;1046499;28;20032;-25
2023/08/24 02:47:22;;;;;;;2.30;0.60;;;;;;;;;;1049487;28;20036;-25
2023/08/24 02:47:52;;;;;;;4.32;1.65;;;;;;;;;;1055448;28;20157;-25
2023/08/24 02:48:23;;;;;;;0.60;0.32;;;;;;;;;;1055444;28;20050;-24
2023/08/24 02:48:54;;;;;;;15.05;3.60;;;;;;;;;;1055231;28;20060;-24
2023/08/24 02:49:24;;;;;;;0.60;0.60;;;;;;;;;;1047752;28;20028;-25
2023/08/24 02:49:55;;;;;;;4.32;0.77;;;;;;;;;;1047635;28;20492;-24
2023/08/24 02:50:25;;;;;;;0.85;0.77;;;;;;;;;;1047195;28;20028;-25
2023/08/24 02:50:57;;;;;;;2.90;1.85;;;;;;;;;;1047377;28;20028;-24
2023/08/24 02:51:28;;;;;;;0.85;0.43;;;;;;;;;;1047244;28;20024;-25
2023/08/24 02:51:59;;;;;;;0.20;0.20;;;;;;;;;;1046351;28;20036;-24
2023/08/24 02:52:30;;;;;;;3.83;1.27;;;;;;;;;;1047114;28;20028;-23
2023/08/24 02:53:01;;;;;;;2.13;1.60;;;;;;;;;;1047283;28;20063;-25
2023/08/24 02:53:32;;;;;;;0.32;0.32;;;;;;;;;;1045925;28;20430;-24
2023/08/24 02:54:02;;;;;;;0.63;0.30;;;;;;;;;;1046578;28;20623;-24
2023/08/24 02:54:34;;;;;;;0.15;0.15;;;;;;;;;;1046387;28;20035;-25
2023/08/24 02:55:05;;;;;;;0.65;0.65;;;;;;;;;;1044775;28;20537;-24
2023/08/24 02:55:35;;;;;;;1.65;0.38;;;;;;;;;;1041911;28;20305;-24
2023/08/24 02:56:06;;;;;;;0.65;0.55;;;;;;;;;;1042028;28;20405;-24
2023/08/24 02:56:36;;;;;;;3.45;0.88;;;;;;;;;;1042982;28;20023;-24
2023/08/24 02:57:07;;;;;;;1.38;1.27;;;;;;;;;;1042202;28;20871;-25
2023/08/24 02:57:37;;;;;;;0.60;0.60;;;;;;;;;;1041243;28;20024;-24
2023/08/24 02:58:08;;;;;;;2.13;1.08;;;;;;;;;;1042099;28;20035;-25
2023/08/24 02:58:38;;;;;;;0.80;0.80;;;;;;;;;;1040331;28;20035;-24
2023/08/24 02:59:09;;;;;;;2.47;1.35;;;;;;;;;;1041124;28;20021;-24
2023/08/24 02:59:43;;;;;;;2.75;2.22;;;;;;;;;;1041623;28;20133;-25
2023/08/24 03:00:13;;;;;;;5.38;0.85;;;;;;;;;;1042367;28;21025;-24
2023/08/24 03:00:44;;;;;;;1.20;1.10;;;;;;;;;;1043782;28;20564;-25
2023/08/24 03:01:14;;;;;;;1.85;1.67;;;;;;;;;;1044000;28;20500;-25
2023/08/24 03:01:45;;;;;;;0.57;0.57;;;;;;;;;;1043121;28;20090;-24
2023/08/24 03:02:18;;;;;;;0.93;0.77;;;;;;;;;;1044673;28;20332;-25
2023/08/24 03:02:49;;;;;;;0.75;0.75;;;;;;;;;;1042877;28;20021;-25
2023/08/24 03:03:23;;;;;;;3.60;1.23;;;;;;;;;;1044392;28;20024;-24
2023/08/24 03:03:54;;;;;;;2.65;1.90;;;;;;;;;;1041829;28;20036;-23
2023/08/24 03:04:24;;;;;;;0.40;0.40;;;;;;;;;;1042752;28;20033;-24
2023/08/24 03:04:55;;;;;;;1.85;1.00;;;;;;;;;;1043146;28;20020;-25
2023/08/24 03:05:27;;;;;;;0.30;0.30;;;;;;;;;;1042884;28;20020;-25
2023/08/24 03:05:59;;;;;;;4.15;1.50;;;;;;;;;;1042716;28;20036;-25
2023/08/24 03:06:29;;;;;;;1.35;1.25;;;;;;;;;;1042594;28;20028;-25
2023/08/24 03:07:00;;;;;;;2.00;1.90;;;;;;;;;;1043932;28;20024;-25
2023/08/24 03:07:30;;;;;;;1.02;0.75;;;;;;;;;;1044365;28;20016;-25
2023/08/24 03:08:01;;;;;;;1.67;0.98;;;;;;;;;;1042446;28;20036;-25
2023/08/24 03:08:32;;;;;;;1.17;0.98;;;;;;;;;;1043243;28;20393;-25